Wilkinson, Minnesota
Current Conditions -  °F | °C
As of 2:55 AM on Monday 20 Oct 2014 (Local Time) from KY49 Reporting Station
Clear Clear  
Wind Chill: 44°   Ceiling: Unl
Heat Index: 44°   Visibility: 10mi
Dew Point: 39°   Wind: 3mph
Humidity: 83%   Direction: 300°WNW
Pressure: 29.91"   Gusts: NA
Location:  47.3012°N, 94.5426°W
Report Text: KY49 200755Z AUTO 30003KT 10SM CLR 07/04 A2991 RMK AO2 T00670040
Loading
Personal Weather Stations






























Interactive Weather Map
Tropical Storm Tracking
New forecast layout! Learn more

10-Day Weather Forecast

Advertisements
Track Severe Weather on mobile